createdAt,value
2018-04-17T00:00:18.886Z,20.53
2018-04-17T00:02:46.445Z,24.33
2018-04-17T00:05:13.993Z,16.83
2018-04-17T00:07:41.576Z,17.57
2018-04-17T00:10:09.182Z,17.17
2018-04-17T00:12:36.728Z,18.33
2018-04-17T00:15:04.282Z,17.27
2018-04-17T00:17:31.862Z,19.13
2018-04-17T00:19:59.417Z,19.17
2018-04-17T00:22:27.013Z,18.33
2018-04-17T00:24:54.609Z,19.03
2018-04-17T00:27:22.171Z,17.43
2018-04-17T00:29:49.743Z,17.83
2018-04-17T00:32:17.298Z,19.00
2018-04-17T00:34:44.887Z,18.00
2018-04-17T00:37:12.465Z,18.23
2018-04-17T00:39:40.021Z,19.70
2018-04-17T00:42:07.598Z,18.57
2018-04-17T00:44:35.190Z,18.77
2018-04-17T00:47:02.774Z,23.97
2018-04-17T00:49:30.338Z,20.13
2018-04-17T00:51:57.892Z,19.80
2018-04-17T00:54:25.478Z,20.37
2018-04-17T00:56:53.032Z,19.70
2018-04-17T00:59:20.608Z,20.13
2018-04-17T01:01:48.171Z,21.30
2018-04-17T01:04:15.720Z,21.47
2018-04-17T01:06:43.289Z,28.03
2018-04-17T01:09:10.845Z,23.57
2018-04-17T01:11:39.417Z,22.80
2018-04-17T01:14:06.977Z,23.77
2018-04-17T01:16:34.532Z,26.07
2018-04-17T01:19:02.109Z,23.50
2018-04-17T01:21:29.670Z,24.43
2018-04-17T01:23:57.266Z,23.73
2018-04-17T01:26:24.829Z,24.30
2018-04-17T01:28:52.856Z,25.63
2018-04-17T01:31:20.428Z,21.43
2018-04-17T01:33:47.992Z,26.30
2018-04-17T01:36:15.597Z,22.13
2018-04-17T01:38:43.159Z,23.00
2018-04-17T01:41:10.717Z,23.20
2018-04-17T01:43:38.294Z,25.60
2018-04-17T01:46:05.836Z,24.60
2018-04-17T01:48:33.430Z,31.83
2018-04-17T01:51:01.010Z,27.00
2018-04-17T01:53:28.567Z,26.43
2018-04-17T01:55:56.142Z,28.10
2018-04-17T01:58:23.752Z,31.13
2018-04-17T02:00:51.321Z,33.67
2018-04-17T02:03:18.905Z,31.37
2018-04-17T02:05:46.456Z,33.53
2018-04-17T02:08:14.040Z,29.27
2018-04-17T02:10:41.592Z,37.60
2018-04-17T02:13:09.160Z,29.23
2018-04-17T02:15:36.721Z,33.43
2018-04-17T02:18:04.277Z,32.43
2018-04-17T02:20:31.873Z,34.90
2018-04-17T02:22:59.432Z,27.20
2018-04-17T02:25:27.010Z,23.63
2018-04-17T02:27:54.568Z,27.70
2018-04-17T02:30:22.120Z,29.60
2018-04-17T02:32:49.693Z,26.43
2018-04-17T02:35:17.241Z,30.73
2018-04-17T02:37:44.825Z,26.20
2018-04-17T02:40:12.386Z,31.53
2018-04-17T02:42:39.949Z,37.63
2018-04-17T02:45:07.538Z,34.40
2018-04-17T02:47:35.197Z,29.40
2018-04-17T02:50:02.781Z,27.77
2018-04-17T02:52:30.337Z,25.03
2018-04-17T02:54:57.892Z,22.60
2018-04-17T02:57:25.477Z,23.30
2018-04-17T02:59:53.061Z,20.70
2018-04-17T03:02:21.497Z,24.27
2018-04-17T03:04:49.049Z,25.53
2018-04-17T03:07:16.609Z,25.67
2018-04-17T03:09:44.181Z,23.23
2018-04-17T03:12:11.737Z,24.17
2018-04-17T03:14:39.318Z,24.33
2018-04-17T03:17:06.865Z,24.33
2018-04-17T03:19:34.421Z,29.20
2018-04-17T03:22:02.012Z,27.57
2018-04-17T03:24:29.566Z,28.03
2018-04-17T03:26:57.285Z,28.77
2018-04-17T03:29:25.299Z,38.90
2018-04-17T03:31:52.846Z,40.53
2018-04-17T03:34:20.425Z,48.60
2018-04-17T03:36:48.087Z,40.40
2018-04-17T03:39:15.719Z,39.87
2018-04-17T03:41:43.308Z,37.40
2018-04-17T03:44:10.940Z,38.67
2018-04-17T03:46:38.544Z,43.80
2018-04-17T03:49:06.175Z,43.43
2018-04-17T03:51:33.822Z,33.47
2018-04-17T03:54:01.416Z,29.77
2018-04-17T03:56:29.029Z,30.30
2018-04-17T03:58:56.617Z,29.90
2018-04-17T04:01:24.185Z,32.57
2018-04-17T04:03:51.760Z,31.10
2018-04-17T04:06:19.313Z,32.50
2018-04-17T04:08:46.868Z,34.40
2018-04-17T04:11:14.444Z,39.30
2018-04-17T04:13:41.984Z,39.60
2018-04-17T04:19:24.052Z,34.27
2018-04-17T04:22:04.451Z,40.13
2018-04-17T04:24:43.688Z,34.63
2018-04-17T04:27:11.251Z,37.57
2018-04-17T04:29:38.824Z,34.23
2018-04-17T04:32:06.397Z,29.87
2018-04-17T04:34:33.944Z,29.63
2018-04-17T04:37:01.488Z,25.20
2018-04-17T04:39:29.052Z,27.80
2018-04-17T04:41:56.596Z,33.60
2018-04-17T04:44:24.181Z,29.33
2018-04-17T04:46:51.733Z,26.50
2018-04-17T04:49:19.281Z,26.20
2018-04-17T04:51:46.852Z,35.23
2018-04-17T04:54:14.395Z,28.83
2018-04-17T04:56:41.994Z,37.83
2018-04-17T04:59:09.550Z,28.20
2018-04-17T05:01:37.105Z,29.37
2018-04-17T05:04:04.685Z,30.20
2018-04-17T05:06:32.296Z,116.67
2018-04-17T05:08:59.873Z,112.50
2018-04-17T05:11:27.417Z,54.97
2018-04-17T05:13:54.960Z,33.87
2018-04-17T05:16:22.534Z,29.40
2018-04-17T05:18:50.080Z,58.90
2018-04-17T05:21:17.648Z,94.50
2018-04-17T05:23:45.263Z,74.03
2018-04-17T05:26:12.789Z,87.70
2018-04-17T05:28:40.379Z,69.07
2018-04-17T05:31:07.937Z,51.80
2018-04-17T05:33:36.521Z,59.03
2018-04-17T05:36:04.102Z,124.37
2018-04-17T05:38:31.651Z,67.27
2018-04-17T05:40:59.226Z,163.07
2018-04-17T05:43:26.728Z,115.67
2018-04-17T05:45:54.249Z,229.87
2018-04-17T05:48:21.744Z,85.37
2018-04-17T05:50:49.241Z,74.70
2018-04-17T05:53:16.773Z,170.00
2018-04-17T05:55:44.343Z,111.07
2018-04-17T05:58:11.831Z,94.70
2018-04-17T06:00:39.334Z,98.37
2018-04-17T06:03:06.835Z,96.43
2018-04-17T06:05:34.353Z,319.97
2018-04-17T06:08:01.849Z,145.13
2018-04-17T06:10:29.378Z,208.73
2018-04-17T06:12:56.881Z,147.93
2018-04-17T06:15:24.414Z,130.93
2018-04-17T06:17:51.941Z,97.93
2018-04-17T06:20:19.482Z,105.10
2018-04-17T06:22:47.015Z,82.37
2018-04-17T06:25:14.514Z,70.20
2018-04-17T06:27:42.012Z,45.93
2018-04-17T06:30:09.529Z,54.30
2018-04-17T06:32:37.029Z,32.67
2018-04-17T06:35:04.605Z,78.07
2018-04-17T06:37:32.060Z,74.37
2018-04-17T06:39:59.553Z,64.17
2018-04-17T06:42:27.066Z,88.10
2018-04-17T06:44:54.556Z,86.57
2018-04-17T06:47:22.116Z,53.83
2018-04-17T06:49:49.590Z,38.77
2018-04-17T06:52:17.080Z,30.23
2018-04-17T06:54:44.589Z,32.97
2018-04-17T06:57:12.086Z,20.67
2018-04-17T06:59:39.608Z,27.83
2018-04-17T07:02:07.098Z,42.30
2018-04-17T07:04:34.607Z,27.90
2018-04-17T07:07:02.126Z,26.37
2018-04-17T07:09:29.627Z,24.93
2018-04-17T07:11:57.156Z,24.77
2018-04-17T07:14:24.659Z,21.33
2018-04-17T07:16:52.156Z,18.80
2018-04-17T07:19:19.694Z,16.53
2018-04-17T07:21:47.193Z,15.77
2018-04-17T07:24:14.713Z,11.67
2018-04-17T07:26:42.206Z,11.67
2018-04-17T07:29:09.712Z,13.47
2018-04-17T07:31:37.230Z,12.43
2018-04-17T07:34:04.726Z,12.03
2018-04-17T07:36:32.245Z,12.53
2018-04-17T07:38:59.741Z,18.37
2018-04-17T07:41:27.342Z,16.67
2018-04-17T07:43:54.776Z,13.33
2018-04-17T07:46:22.279Z,12.17
2018-04-17T07:48:50.701Z,11.63
2018-04-17T07:51:18.188Z,12.07
2018-04-17T07:53:45.712Z,13.43
2018-04-17T07:56:13.204Z,13.85
2018-04-17T07:58:40.702Z,12.25
2018-04-17T08:01:08.225Z,13.25
2018-04-17T08:03:35.721Z,12.13
2018-04-17T08:06:03.237Z,12.65
2018-04-17T08:08:30.733Z,14.43
2018-04-17T08:10:58.226Z,13.05
2018-04-17T08:13:25.751Z,14.48
2018-04-17T08:15:53.240Z,18.12
2018-04-17T08:18:20.760Z,14.13
2018-04-17T08:20:48.253Z,15.00
2018-04-17T08:23:16.674Z,14.38
2018-04-17T08:25:44.209Z,15.43
2018-04-17T08:28:11.759Z,16.40
2018-04-17T08:30:39.306Z,16.85
2018-04-17T08:33:06.802Z,15.73
2018-04-17T08:35:34.290Z,17.12
2018-04-17T08:38:01.814Z,15.52
2018-04-17T08:40:29.323Z,14.70
2018-04-17T08:42:56.847Z,15.60
2018-04-17T08:45:24.406Z,17.08
2018-04-17T08:47:51.901Z,15.80
2018-04-17T08:50:19.412Z,16.42
2018-04-17T08:52:46.913Z,14.48
2018-04-17T08:55:14.438Z,14.65
2018-04-17T08:57:41.929Z,14.05
2018-04-17T09:00:09.427Z,15.57
2018-04-17T09:02:36.938Z,17.35
2018-04-17T09:05:04.430Z,13.88
2018-04-17T09:07:31.942Z,15.05
2018-04-17T09:09:59.438Z,17.42
2018-04-17T09:12:26.934Z,15.35
2018-04-17T09:14:54.456Z,18.87
2018-04-17T09:17:21.945Z,15.68
2018-04-17T09:19:49.470Z,15.82
2018-04-17T09:22:16.971Z,16.55
2018-04-17T09:24:44.465Z,16.35
2018-04-17T09:27:11.985Z,16.67
2018-04-17T09:29:39.482Z,20.10
2018-04-17T09:32:07.973Z,16.33
2018-04-17T09:34:35.546Z,18.05
2018-04-17T09:37:03.011Z,22.77
2018-04-17T09:39:30.534Z,19.45
2018-04-17T09:41:58.036Z,19.42
2018-04-17T09:44:26.422Z,16.15
2018-04-17T09:46:53.915Z,16.60
2018-04-17T09:49:21.413Z,16.77
2018-04-17T09:51:48.925Z,20.23
2018-04-17T09:54:16.425Z,18.65
2018-04-17T09:56:43.922Z,22.42
2018-04-17T09:59:11.453Z,22.92
2018-04-17T10:01:38.952Z,19.87
2018-04-17T10:04:06.457Z,18.85
2018-04-17T10:06:33.988Z,17.65
2018-04-17T10:09:01.624Z,19.70
2018-04-17T10:11:29.100Z,19.90
2018-04-17T10:13:56.674Z,15.23
2018-04-17T10:16:24.169Z,17.80
2018-04-17T10:18:51.681Z,19.63
2018-04-17T10:21:19.234Z,21.53
2018-04-17T10:23:46.753Z,20.00
2018-04-17T10:26:14.252Z,15.90
2018-04-17T10:28:41.758Z,12.37
2018-04-17T10:31:09.286Z,12.77
2018-04-17T10:33:36.774Z,9.80
2018-04-17T10:36:04.302Z,12.90
2018-04-17T10:38:31.812Z,12.70
2018-04-17T10:40:59.481Z,9.27
2018-04-17T10:43:27.238Z,7.67
2018-04-17T10:45:54.770Z,8.20
2018-04-17T10:48:22.291Z,11.53
2018-04-17T10:50:49.937Z,10.33
2018-04-17T10:53:17.553Z,9.87
2018-04-17T10:55:45.084Z,8.57
2018-04-17T10:58:12.581Z,13.57
2018-04-17T11:00:40.267Z,9.13
2018-04-17T11:03:07.925Z,6.83
2018-04-17T11:05:35.523Z,7.03
2018-04-17T11:08:03.051Z,10.73
2018-04-17T11:10:30.578Z,8.53
2018-04-17T11:12:58.278Z,9.83
2018-04-17T11:15:25.812Z,7.00
2018-04-17T11:17:53.325Z,8.07
2018-04-17T11:20:20.868Z,11.50
2018-04-17T11:22:48.550Z,8.53
2018-04-17T11:25:16.119Z,17.47
2018-04-17T11:27:43.634Z,11.07
2018-04-17T11:30:11.147Z,11.27
2018-04-17T11:32:38.858Z,10.53
2018-04-17T11:35:06.477Z,9.50
2018-04-17T11:37:34.018Z,10.87
2018-04-17T11:40:01.513Z,13.30
2018-04-17T11:42:29.175Z,12.67
2018-04-17T11:44:56.916Z,8.03
2018-04-17T11:47:24.433Z,8.77
2018-04-17T11:49:51.952Z,14.40
2018-04-17T11:52:19.602Z,11.63
2018-04-17T11:54:47.293Z,8.10
2018-04-17T11:57:14.830Z,5.37
2018-04-17T11:59:42.324Z,5.67
2018-04-17T12:02:09.847Z,8.20
2018-04-17T12:04:37.347Z,5.00
2018-04-17T12:07:04.863Z,7.37
2018-04-17T12:09:32.377Z,9.40
2018-04-17T12:11:59.864Z,6.27
2018-04-17T12:14:27.392Z,9.23
2018-04-17T12:16:54.885Z,12.47
2018-04-17T12:19:22.376Z,93.73
2018-04-17T12:21:49.903Z,9.00
2018-04-17T12:24:17.401Z,10.03
2018-04-17T12:26:44.937Z,10.00
2018-04-17T12:29:12.430Z,10.90
2018-04-17T12:31:39.921Z,8.57
2018-04-17T12:34:07.481Z,7.27
2018-04-17T12:36:34.973Z,4.57
2018-04-17T12:39:02.484Z,6.40
2018-04-17T12:41:29.979Z,4.60
2018-04-17T12:43:57.472Z,6.23
2018-04-17T12:46:24.994Z,6.40
2018-04-17T12:48:52.492Z,8.63
2018-04-17T12:51:20.021Z,8.07
2018-04-17T12:53:47.580Z,5.50
2018-04-17T12:56:15.072Z,8.23
2018-04-17T12:58:42.588Z,4.37
2018-04-17T13:01:10.090Z,4.87
2018-04-17T13:03:38.577Z,22.07
2018-04-17T13:06:06.066Z,5.97
2018-04-17T13:08:33.566Z,16.03
2018-04-17T13:11:01.088Z,12.27
2018-04-17T13:13:28.642Z,13.67
2018-04-17T13:15:56.162Z,7.33
2018-04-17T13:18:23.689Z,13.27
2018-04-17T13:20:51.173Z,8.90
2018-04-17T13:23:18.682Z,12.37
2018-04-17T13:25:46.175Z,8.73
2018-04-17T13:28:13.703Z,11.53
2018-04-17T13:30:41.197Z,8.43
2018-04-17T13:33:08.718Z,8.67
2018-04-17T13:35:36.231Z,8.60
2018-04-17T13:38:03.722Z,7.20
2018-04-17T13:40:31.242Z,9.03
2018-04-17T13:42:58.736Z,7.57
2018-04-17T13:45:26.220Z,4.97
2018-04-17T13:47:53.734Z,3.63
2018-04-17T13:50:21.229Z,4.03
2018-04-17T13:52:48.745Z,4.30
2018-04-17T13:55:16.233Z,6.43
2018-04-17T13:57:43.722Z,6.27
2018-04-17T14:00:11.242Z,16.73
2018-04-17T14:02:38.800Z,12.77
2018-04-17T14:05:07.273Z,13.57
2018-04-17T14:07:34.774Z,9.83
2018-04-17T14:10:02.279Z,11.03
2018-04-17T14:12:29.801Z,11.93
2018-04-17T14:14:57.291Z,9.80
2018-04-17T14:17:24.824Z,10.50
2018-04-17T14:19:52.324Z,9.70
2018-04-17T14:22:19.818Z,8.90
2018-04-17T14:24:47.337Z,12.47
2018-04-17T14:27:14.842Z,18.83
2018-04-17T14:29:42.377Z,18.30
2018-04-17T14:32:09.873Z,14.67
2018-04-17T14:34:37.402Z,14.10
2018-04-17T14:37:04.933Z,12.10
2018-04-17T14:39:32.522Z,8.63
2018-04-17T14:42:00.053Z,8.00
2018-04-17T14:44:27.559Z,10.43
2018-04-17T14:46:55.128Z,10.10
2018-04-17T14:49:22.666Z,14.70
2018-04-17T14:51:50.167Z,22.97
2018-04-17T14:54:17.682Z,23.93
2018-04-17T14:56:45.184Z,16.30
2018-04-17T14:59:12.681Z,15.00
2018-04-17T15:01:40.198Z,15.43
2018-04-17T15:04:07.686Z,16.37
2018-04-17T15:06:35.210Z,13.23
2018-04-17T15:09:02.716Z,11.70
2018-04-17T15:11:30.201Z,9.30
2018-04-17T15:13:57.726Z,10.70
2018-04-17T15:16:25.222Z,9.90
2018-04-17T15:18:53.729Z,6.93
2018-04-17T15:21:21.213Z,7.10
2018-04-17T15:23:48.701Z,6.50
2018-04-17T15:26:16.222Z,6.47
2018-04-17T15:28:43.722Z,4.73
2018-04-17T15:31:11.240Z,9.13
2018-04-17T15:33:38.720Z,15.07
2018-04-17T15:36:06.210Z,12.63
2018-04-17T15:38:33.737Z,18.37
2018-04-17T15:41:01.227Z,13.17
2018-04-17T15:43:28.731Z,13.90
2018-04-17T15:45:56.208Z,7.97
2018-04-17T15:48:23.706Z,8.03
2018-04-17T15:50:51.254Z,12.10
2018-04-17T15:53:18.730Z,5.77
2018-04-17T15:55:46.230Z,3.00
2018-04-17T15:58:13.714Z,27.67
2018-04-17T16:00:41.220Z,9.03
2018-04-17T16:03:08.719Z,6.17
2018-04-17T16:05:36.192Z,5.83
2018-04-17T16:08:03.687Z,5.50
2018-04-17T16:10:31.162Z,8.63
2018-04-17T16:12:58.663Z,9.10
2018-04-17T16:15:26.155Z,6.17
2018-04-17T16:17:53.626Z,6.83
2018-04-17T16:20:21.130Z,6.83
2018-04-17T16:22:48.607Z,3.40
2018-04-17T16:25:16.079Z,3.00
2018-04-17T16:27:43.583Z,5.13
2018-04-17T16:30:11.064Z,4.17
2018-04-17T16:32:38.563Z,2.90
2018-04-17T16:35:06.036Z,3.43
2018-04-17T16:37:33.506Z,6.63
2018-04-17T16:40:00.993Z,2.77
2018-04-17T16:42:28.483Z,3.90
2018-04-17T16:44:56.000Z,2.70
2018-04-17T16:47:23.490Z,4.03
2018-04-17T16:49:51.061Z,4.80
2018-04-17T16:52:18.571Z,7.47
2018-04-17T16:54:46.067Z,4.53
2018-04-17T16:57:13.550Z,9.73
2018-04-17T16:59:41.072Z,12.93
2018-04-17T17:02:08.582Z,11.90
2018-04-17T17:04:36.073Z,9.23
2018-04-17T17:07:03.589Z,13.00
2018-04-17T17:09:31.077Z,19.47
2018-04-17T17:11:58.613Z,17.80
2018-04-17T17:14:26.114Z,18.63
2018-04-17T17:16:53.619Z,14.20
2018-04-17T17:19:21.135Z,4.63
2018-04-17T17:21:48.625Z,6.77
2018-04-17T17:24:16.142Z,8.13
2018-04-17T17:26:43.633Z,5.60
2018-04-17T17:29:11.119Z,6.20
2018-04-17T17:31:38.678Z,4.63
2018-04-17T17:34:06.225Z,4.07
2018-04-17T17:36:33.799Z,4.00
2018-04-17T17:39:01.372Z,3.80
2018-04-17T17:41:28.913Z,3.17
2018-04-17T17:43:56.454Z,5.13
2018-04-17T17:46:23.953Z,4.93
2018-04-17T17:48:51.575Z,3.10
2018-04-17T17:51:19.145Z,3.63
2018-04-17T17:53:46.659Z,3.60
2018-04-17T17:56:14.245Z,7.13
2018-04-17T17:58:41.752Z,3.83
2018-04-17T18:01:09.382Z,4.73
2018-04-17T18:03:36.981Z,4.90
2018-04-17T18:06:05.461Z,6.10
2018-04-17T18:08:33.085Z,5.00
2018-04-17T18:11:00.614Z,10.27
2018-04-17T18:13:28.156Z,9.53
2018-04-17T18:15:55.645Z,9.90
2018-04-17T18:18:23.125Z,8.03
2018-04-17T18:20:51.605Z,21.60
2018-04-17T18:23:19.102Z,11.53
2018-04-17T18:25:46.655Z,10.77
2018-04-17T18:28:14.153Z,17.80
2018-04-17T18:30:41.651Z,13.33
2018-04-17T18:33:09.164Z,13.20
2018-04-17T18:35:36.646Z,8.40
2018-04-17T18:38:04.169Z,11.80
2018-04-17T18:40:31.667Z,14.97
2018-04-17T18:42:59.167Z,18.87
2018-04-17T18:45:26.682Z,12.53
2018-04-17T18:47:54.173Z,10.90
2018-04-17T18:50:21.689Z,10.93
2018-04-17T18:52:49.191Z,18.70
2018-04-17T18:55:16.687Z,11.67
2018-04-17T18:57:44.200Z,16.60
2018-04-17T19:00:11.757Z,9.60
2018-04-17T19:02:39.277Z,4.27
2018-04-17T19:05:06.774Z,6.37
2018-04-17T19:07:34.274Z,5.23
2018-04-17T19:10:01.790Z,4.23
2018-04-17T19:12:29.289Z,11.63
2018-04-17T19:14:56.808Z,15.67
2018-04-17T19:17:24.294Z,15.50
2018-04-17T19:19:51.786Z,10.30
2018-04-17T19:22:19.713Z,13.73
2018-04-17T19:24:47.226Z,18.37
2018-04-17T19:27:14.744Z,32.13
2018-04-17T19:29:42.224Z,23.77
2018-04-17T19:32:09.737Z,12.87
2018-04-17T19:34:37.254Z,11.57
2018-04-17T19:37:04.758Z,10.83
2018-04-17T19:39:32.283Z,19.87
2018-04-17T19:41:59.768Z,11.43
2018-04-17T19:44:27.280Z,12.97
2018-04-17T19:46:54.788Z,12.83
2018-04-17T19:49:22.278Z,13.93
2018-04-17T19:51:49.796Z,15.00
2018-04-17T19:54:17.334Z,9.13
2018-04-17T19:56:44.821Z,12.33
2018-04-17T19:59:12.334Z,8.03
2018-04-17T20:01:39.823Z,10.97
2018-04-17T20:04:07.342Z,16.67
2018-04-17T20:06:34.848Z,12.47
2018-04-17T20:09:02.342Z,12.67
2018-04-17T20:11:30.797Z,14.70
2018-04-17T20:13:58.297Z,10.17
2018-04-17T20:16:25.809Z,15.30
2018-04-17T20:18:53.305Z,11.27
2018-04-17T20:21:20.797Z,14.87
2018-04-17T20:23:48.308Z,13.13
2018-04-17T20:26:15.801Z,19.67
2018-04-17T20:28:43.313Z,9.63
2018-04-17T20:31:10.805Z,10.17
2018-04-17T20:33:38.300Z,12.63
2018-04-17T20:36:05.816Z,12.80
2018-04-17T20:38:33.314Z,12.53
2018-04-17T20:41:00.824Z,15.07
2018-04-17T20:43:28.338Z,10.67
2018-04-17T20:45:55.830Z,11.47
2018-04-17T20:48:23.337Z,9.30
2018-04-17T20:50:50.825Z,12.47
2018-04-17T20:53:18.380Z,10.97
2018-04-17T20:55:45.915Z,9.97
2018-04-17T20:58:13.410Z,13.50
2018-04-17T21:00:40.928Z,9.90
2018-04-17T21:03:08.455Z,15.80
2018-04-17T21:05:35.973Z,14.43
2018-04-17T21:08:03.477Z,10.43
2018-04-17T21:10:30.961Z,14.00
2018-04-17T21:12:58.473Z,7.60
2018-04-17T21:15:25.960Z,12.63
2018-04-17T21:17:53.472Z,14.03
2018-04-17T21:20:20.965Z,10.80
2018-04-17T21:22:48.458Z,12.83
2018-04-17T21:25:15.970Z,9.80
2018-04-17T21:27:43.509Z,11.30
2018-04-17T21:30:11.033Z,12.60
2018-04-17T21:32:38.523Z,13.07
2018-04-17T21:35:06.024Z,16.17
2018-04-17T21:37:33.543Z,12.13
2018-04-17T21:40:01.034Z,13.60
2018-04-17T21:42:28.558Z,13.13
2018-04-17T21:44:56.049Z,10.73
2018-04-17T21:47:23.537Z,13.53
2018-04-17T21:49:51.050Z,12.07
2018-04-17T21:52:18.545Z,16.23
2018-04-17T21:54:46.069Z,12.90
2018-04-17T21:57:13.562Z,12.20
2018-04-17T21:59:41.046Z,8.43
2018-04-17T22:02:08.553Z,12.03
2018-04-17T22:04:36.051Z,13.30
2018-04-17T22:07:03.561Z,13.27
2018-04-17T22:09:31.050Z,12.43
2018-04-17T22:11:58.586Z,12.67
2018-04-17T22:14:26.162Z,19.00
2018-04-17T22:16:53.659Z,14.13
2018-04-17T22:19:21.181Z,22.03
2018-04-17T22:21:48.672Z,22.20
2018-04-17T22:24:16.164Z,17.50
2018-04-17T22:26:43.715Z,20.30
2018-04-17T22:29:11.214Z,15.07
2018-04-17T22:31:38.732Z,22.80
2018-04-17T22:34:06.246Z,14.47
2018-04-17T22:36:33.745Z,17.47
2018-04-17T22:39:01.262Z,15.97
2018-04-17T22:41:28.769Z,11.20
2018-04-17T22:43:56.289Z,20.03
2018-04-17T22:46:23.789Z,15.47
2018-04-17T22:48:51.290Z,16.20
2018-04-17T22:51:18.804Z,18.57
2018-04-17T22:53:46.310Z,13.77
2018-04-17T22:56:13.820Z,20.53
2018-04-17T22:58:41.304Z,15.10
2018-04-17T23:01:08.802Z,20.27
2018-04-17T23:03:36.317Z,19.47
2018-04-17T23:06:03.804Z,18.10
2018-04-17T23:08:31.330Z,14.93
2018-04-17T23:10:58.820Z,13.93
2018-04-17T23:13:26.309Z,18.97
2018-04-17T23:15:53.844Z,13.30
2018-04-17T23:18:21.345Z,13.93
2018-04-17T23:20:48.865Z,13.13
2018-04-17T23:23:16.370Z,10.20
2018-04-17T23:25:43.892Z,13.67
2018-04-17T23:28:11.411Z,17.37
2018-04-17T23:30:38.910Z,12.00
2018-04-17T23:33:06.433Z,18.20
2018-04-17T23:35:33.933Z,19.40
2018-04-17T23:38:01.431Z,12.27
2018-04-17T23:40:28.953Z,16.57
2018-04-17T23:42:56.450Z,14.87
2018-04-17T23:45:23.949Z,16.80
2018-04-17T23:47:51.461Z,22.50
2018-04-17T23:50:18.962Z,21.57
2018-04-17T23:52:46.466Z,13.70
2018-04-17T23:55:13.984Z,16.00
2018-04-17T23:57:41.478Z,15.43
